createdAt,value
2019-01-27T00:03:15.569Z,96.50
2019-01-27T00:03:57.575Z,95.74
2019-01-27T00:04:57.576Z,95.93
2019-01-27T00:05:58.075Z,96.50
2019-01-27T00:06:58.078Z,95.93
2019-01-27T00:07:58.075Z,95.74
2019-01-27T00:09:01.575Z,95.65
2019-01-27T00:11:50.797Z,95.74
2019-01-27T00:12:29.803Z,95.27
2019-01-27T00:13:29.806Z,95.74
2019-01-27T00:14:57.303Z,95.74
2019-01-27T00:15:30.307Z,96.12
2019-01-27T00:16:30.303Z,96.12
2019-01-27T00:17:30.303Z,95.93
2019-01-27T00:18:30.801Z,96.50
2019-01-27T00:19:55.302Z,96.78
2019-01-27T00:20:51.807Z,96.97
2019-01-27T00:21:51.803Z,97.64
2019-01-27T00:22:52.303Z,97.26
2019-01-27T00:23:31.309Z,97.36
2019-01-27T00:24:52.311Z,97.74
2019-01-27T00:28:58.017Z,97.45
2019-01-27T00:29:38.490Z,97.55
2019-01-27T00:30:40.526Z,98.59
2019-01-27T00:33:29.747Z,98.02
2019-01-27T00:35:43.731Z,97.92
2019-01-27T00:37:01.240Z,97.36
2019-01-27T00:38:01.241Z,97.26
2019-01-27T00:39:01.747Z,97.55
2019-01-27T00:41:15.107Z,97.26
2019-01-27T00:42:15.048Z,97.64
2019-01-27T00:43:33.114Z,97.55
2019-01-27T00:44:12.623Z,97.64
2019-01-27T00:45:33.619Z,97.64
2019-01-27T00:49:19.284Z,98.49
2019-01-27T00:50:19.270Z,98.21
2019-01-27T00:54:25.500Z,97.45
2019-01-27T00:55:25.525Z,97.64
2019-01-27T00:56:50.967Z,97.74
2019-01-27T00:58:58.656Z,97.45
2019-01-27T01:01:32.251Z,97.64
2019-01-27T01:02:28.761Z,97.74
2019-01-27T01:03:28.759Z,97.74
2019-01-27T01:05:04.258Z,97.55
2019-01-27T01:05:29.259Z,97.45
2019-01-27T01:11:09.475Z,96.97
2019-01-27T01:14:03.311Z,97.74
2019-01-27T01:14:42.327Z,97.26
2019-01-27T01:15:42.319Z,97.26
2019-01-27T01:17:03.825Z,97.74
2019-01-27T01:17:46.319Z,97.83
2019-01-27T01:18:42.822Z,97.45
2019-01-27T01:19:42.820Z,97.45
2019-01-27T01:22:15.981Z,96.97
2019-01-27T01:23:39.048Z,97.17
2019-01-27T01:24:15.057Z,96.59
2019-01-27T01:28:21.375Z,97.55
2019-01-27T01:29:17.870Z,97.74
2019-01-27T01:33:27.452Z,97.64
2019-01-27T01:35:52.480Z,97.45
2019-01-27T01:36:52.486Z,97.26
2019-01-27T01:37:52.492Z,97.55
2019-01-27T01:39:16.987Z,97.55
2019-01-27T01:39:52.998Z,97.45
2019-01-27T01:42:24.454Z,97.26
2019-01-27T01:43:25.914Z,97.64
2019-01-27T01:44:29.896Z,97.64
2019-01-27T01:45:24.461Z,97.26
2019-01-27T01:47:57.656Z,97.45
2019-01-27T01:49:18.633Z,97.64
2019-01-27T01:50:00.249Z,97.07
2019-01-27T01:53:59.338Z,96.59
2019-01-27T01:55:03.346Z,96.69
2019-01-27T01:55:59.846Z,96.59
2019-01-27T01:57:20.848Z,96.69
2019-01-27T01:57:59.846Z,96.59
2019-01-27T01:58:59.845Z,97.07
2019-01-27T02:00:30.845Z,96.78
2019-01-27T02:01:00.818Z,96.88
2019-01-27T02:02:01.280Z,96.88
2019-01-27T02:03:00.345Z,96.97
2019-01-27T02:04:00.843Z,96.97
2019-01-27T02:05:21.847Z,96.88
2019-01-27T02:07:57.035Z,96.88
2019-01-27T02:11:43.441Z,96.50
2019-01-27T02:12:39.450Z,96.88
2019-01-27T02:13:39.450Z,96.88
2019-01-27T02:14:39.453Z,96.59
2019-01-27T02:17:14.680Z,96.93
2019-01-27T02:18:11.179Z,96.78
2019-01-27T02:19:11.183Z,96.59
2019-01-27T02:21:42.899Z,96.97
2019-01-27T02:25:49.288Z,96.97
2019-01-27T02:26:49.296Z,96.88
2019-01-27T02:29:24.114Z,96.69
2019-01-27T02:30:24.116Z,96.69
2019-01-27T02:31:45.617Z,96.50
2019-01-27T02:32:24.615Z,96.59
2019-01-27T02:33:28.114Z,96.69
2019-01-27T02:34:24.610Z,96.88
2019-01-27T02:36:56.333Z,96.50
2019-01-27T02:38:17.343Z,96.78
2019-01-27T02:38:59.842Z,97.64
2019-01-27T02:41:28.560Z,97.74
2019-01-27T02:42:28.569Z,97.74
2019-01-27T02:43:28.567Z,97.45
2019-01-27T02:44:53.567Z,97.26
2019-01-27T02:45:50.071Z,97.55
2019-01-27T02:46:32.502Z,97.45
2019-01-27T02:47:29.068Z,97.92
2019-01-27T02:48:50.583Z,97.74
2019-01-27T02:49:29.572Z,97.64
2019-01-27T02:50:53.769Z,97.55
2019-01-27T02:51:29.568Z,97.45
2019-01-27T02:52:50.567Z,97.45
2019-01-27T02:53:32.073Z,97.26
2019-01-27T02:54:51.079Z,97.74
2019-01-27T02:55:30.069Z,96.97
2019-01-27T03:04:13.993Z,97.45
2019-01-27T03:07:06.468Z,97.64
2019-01-27T03:09:42.671Z,97.45
2019-01-27T03:10:20.237Z,97.45
2019-01-27T03:11:20.237Z,97.55
2019-01-27T03:12:20.743Z,97.64
2019-01-27T03:13:47.679Z,97.83
2019-01-27T03:14:20.740Z,97.74
2019-01-27T03:15:20.737Z,98.02
2019-01-27T03:18:13.462Z,97.45
2019-01-27T03:18:55.954Z,97.26
2019-01-27T03:21:25.524Z,97.26
2019-01-27T03:22:24.068Z,97.74
2019-01-27T03:23:24.067Z,97.74
2019-01-27T03:24:27.567Z,97.45
2019-01-27T03:25:24.571Z,97.69
2019-01-27T03:27:56.033Z,97.74
2019-01-27T03:30:30.508Z,97.88
2019-01-27T03:31:27.511Z,98.02
2019-01-27T03:32:27.512Z,97.55
2019-01-27T03:35:20.233Z,97.74
2019-01-27T03:37:34.708Z,98.07
2019-01-27T03:40:27.169Z,98.45
2019-01-27T03:43:01.915Z,98.02
2019-01-27T03:43:40.931Z,98.02
2019-01-27T03:46:15.536Z,97.92
2019-01-27T03:47:12.544Z,98.07
2019-01-27T03:48:12.541Z,98.45
2019-01-27T03:49:15.043Z,97.97
2019-01-27T03:53:19.757Z,97.41
2019-01-27T03:55:51.239Z,96.64
2019-01-27T03:58:26.029Z,96.83
2019-01-27T03:59:26.033Z,96.55
2019-01-27T04:00:47.033Z,96.36
2019-01-27T04:01:49.533Z,96.45
2019-01-27T04:02:51.036Z,96.55
2019-01-27T04:03:26.534Z,96.55
2019-01-27T04:04:26.539Z,96.93
2019-01-27T04:05:48.032Z,96.83
2019-01-27T04:08:01.888Z,96.74
2019-01-27T04:10:50.861Z,96.36
2019-01-27T04:11:29.870Z,96.45
2019-01-27T04:12:29.878Z,96.45
2019-01-27T04:13:54.368Z,96.26
2019-01-27T04:16:03.174Z,96.74
2019-01-27T04:17:01.732Z,96.64
2019-01-27T04:18:01.734Z,96.93
2019-01-27T04:19:06.253Z,96.64
2019-01-27T04:20:02.251Z,96.64
2019-01-27T04:21:02.232Z,96.83
2019-01-27T04:22:02.239Z,96.55
2019-01-27T04:23:02.731Z,96.93
2019-01-27T04:24:02.728Z,96.64
2019-01-27T04:25:06.264Z,97.12
2019-01-27T04:26:05.663Z,97.78
2019-01-27T04:27:02.733Z,97.22
2019-01-27T04:28:07.664Z,97.50
2019-01-27T04:29:03.229Z,97.22
2019-01-27T04:30:07.227Z,97.50
2019-01-27T04:31:25.663Z,97.69
2019-01-27T04:32:24.729Z,97.69
2019-01-27T04:33:03.727Z,97.78
2019-01-27T04:37:10.185Z,98.02
2019-01-27T04:40:03.154Z,98.21
2019-01-27T04:41:07.161Z,98.87
2019-01-27T04:41:42.164Z,98.97
2019-01-27T04:43:03.169Z,99.06
2019-01-27T04:44:03.663Z,99.16
2019-01-27T04:45:03.663Z,99.26
2019-01-27T04:46:13.698Z,99.35
2019-01-27T04:46:42.664Z,99.16
2019-01-27T04:49:35.384Z,98.83
2019-01-27T04:50:14.390Z,98.87
2019-01-27T04:51:19.363Z,98.97
2019-01-27T04:53:46.087Z,99.11
2019-01-27T04:54:46.099Z,99.16
2019-01-27T04:57:42.815Z,99.35
2019-01-27T04:58:38.822Z,99.73
2019-01-27T04:59:17.822Z,99.44
2019-01-27T05:00:39.329Z,99.91
2019-01-27T05:01:17.550Z,99.49
2019-01-27T05:02:18.324Z,99.58
2019-01-27T05:03:42.823Z,99.49
2019-01-27T05:05:50.055Z,98.73
2019-01-27T05:06:50.062Z,99.02
2019-01-27T05:09:25.777Z,99.11
2019-01-27T05:10:23.226Z,99.21
2019-01-27T05:11:21.786Z,99.30
2019-01-27T05:12:21.783Z,99.11
2019-01-27T05:16:28.804Z,99.26
2019-01-27T05:17:28.809Z,99.35
2019-01-27T05:18:28.809Z,99.06
2019-01-27T05:21:25.568Z,99.68
2019-01-27T05:23:53.058Z,99.30
2019-01-27T05:24:32.063Z,99.49
2019-01-27T05:25:32.061Z,98.92
2019-01-27T05:34:38.612Z,98.02
2019-01-27T05:35:17.611Z,98.30
2019-01-27T05:36:17.609Z,98.83
2019-01-27T05:37:32.105Z,98.87
2019-01-27T05:38:21.611Z,98.78
2019-01-27T05:39:18.104Z,98.97
2019-01-27T05:42:10.712Z,99.06
2019-01-27T05:42:49.717Z,98.87
2019-01-27T05:44:14.220Z,98.68
2019-01-27T05:45:11.227Z,98.68
2019-01-27T05:47:21.567Z,98.68
2019-01-27T05:48:21.574Z,98.73
2019-01-27T05:50:57.872Z,98.78
2019-01-27T05:53:27.899Z,99.06
2019-01-27T05:54:32.358Z,98.97
2019-01-27T05:55:27.905Z,99.91
2019-01-27T05:56:27.907Z,99.44
2019-01-27T05:58:59.625Z,99.35
2019-01-27T06:00:25.069Z,98.78
2019-01-27T06:01:21.609Z,98.87
2019-01-27T06:02:00.132Z,98.92
2019-01-27T06:03:00.131Z,97.92
2019-01-27T06:03:59.470Z,98.21
2019-01-27T06:08:28.140Z,98.78
2019-01-27T06:09:07.140Z,99.16
2019-01-27T06:10:10.139Z,98.78
2019-01-27T06:14:33.226Z,99.44
2019-01-27T06:15:14.279Z,98.97
2019-01-27T06:16:12.212Z,99.54
2019-01-27T06:18:42.492Z,99.99
2019-01-27T06:19:42.496Z,99.99
2019-01-27T06:20:47.013Z,99.99
2019-01-27T06:21:42.999Z,99.99
2019-01-27T06:23:03.999Z,99.99
2019-01-27T06:23:43.002Z,99.99
2019-01-27T06:24:43.505Z,99.44
2019-01-27T06:26:14.493Z,99.44
2019-01-27T06:27:04.499Z,99.73
2019-01-27T06:27:43.513Z,99.54
2019-01-27T06:28:43.997Z,99.73
2019-01-27T06:31:20.284Z,99.44
2019-01-27T06:33:46.940Z,99.73
2019-01-27T06:34:46.943Z,99.54
2019-01-27T06:35:46.945Z,99.99
2019-01-27T06:38:21.746Z,99.99
2019-01-27T06:39:21.755Z,99.99
2019-01-27T06:40:22.248Z,99.99
2019-01-27T06:41:22.247Z,99.35
2019-01-27T06:42:48.216Z,99.54
2019-01-27T06:43:22.247Z,98.78
2019-01-27T06:44:21.844Z,99.91
2019-01-27T06:46:56.015Z,99.54
2019-01-27T06:47:57.580Z,99.99
2019-01-27T06:48:54.081Z,99.91
2019-01-27T06:53:00.527Z,99.82
2019-01-27T06:53:57.544Z,99.63
2019-01-27T06:54:57.538Z,99.73
2019-01-27T06:57:29.758Z,99.44
2019-01-27T06:58:35.266Z,99.99
2019-01-27T06:59:50.768Z,99.99
2019-01-27T07:00:56.700Z,99.99
2019-01-27T07:03:01.612Z,99.99
2019-01-27T07:05:57.881Z,99.99
2019-01-27T07:06:57.858Z,99.99
2019-01-27T07:07:37.793Z,99.99
2019-01-27T07:08:36.867Z,99.99
2019-01-27T07:09:40.865Z,99.99
2019-01-27T07:12:08.711Z,99.99
2019-01-27T07:13:29.719Z,99.99
2019-01-27T07:14:08.719Z,99.91
2019-01-27T07:15:13.653Z,99.99
2019-01-27T07:17:40.557Z,99.99
2019-01-27T07:18:40.563Z,99.99
2019-01-27T07:19:40.566Z,99.99
2019-01-27T07:20:44.567Z,99.99
2019-01-27T07:21:41.065Z,99.99
2019-01-27T07:23:02.065Z,99.77
2019-01-27T07:23:41.068Z,99.40
2019-01-27T07:26:16.288Z,99.99
2019-01-27T07:27:33.837Z,99.99
2019-01-27T07:28:12.805Z,99.58
2019-01-27T07:29:12.793Z,99.58
2019-01-27T07:31:48.014Z,99.99
2019-01-27T07:33:05.526Z,99.97
2019-01-27T07:35:16.129Z,99.99
2019-01-27T07:36:16.135Z,99.99
2019-01-27T07:38:50.950Z,99.99
2019-01-27T07:39:50.959Z,99.99
2019-01-27T07:41:11.961Z,99.99
2019-01-27T07:43:26.686Z,99.99
2019-01-27T07:44:22.699Z,99.99
2019-01-27T07:45:43.691Z,99.99
2019-01-27T07:46:23.195Z,99.97
2019-01-27T07:47:44.194Z,99.99
2019-01-27T07:49:58.518Z,99.99
2019-01-27T07:51:19.524Z,99.99
2019-01-27T07:53:55.127Z,99.99
2019-01-27T07:54:30.646Z,99.99
2019-01-27T07:55:30.633Z,99.99
2019-01-27T07:56:31.133Z,99.99
2019-01-27T07:57:31.134Z,99.99
2019-01-27T07:58:31.138Z,99.99
2019-01-27T07:59:35.133Z,99.99
2019-01-27T08:01:06.633Z,99.99
2019-01-27T08:01:31.633Z,99.99
2019-01-27T08:04:04.563Z,99.99
2019-01-27T08:07:02.977Z,99.99
2019-01-27T08:07:38.041Z,99.99
2019-01-27T08:08:38.050Z,99.99
2019-01-27T08:11:16.205Z,99.99
2019-01-27T08:13:41.733Z,99.99
2019-01-27T08:14:41.740Z,99.99
2019-01-27T08:15:41.745Z,99.49
2019-01-27T08:16:45.234Z,99.99
2019-01-27T08:17:42.235Z,99.68
2019-01-27T08:18:42.236Z,99.58
2019-01-27T08:19:42.232Z,99.49
2019-01-27T08:21:05.171Z,99.02
2019-01-27T08:21:46.234Z,99.40
2019-01-27T08:22:42.736Z,99.40
2019-01-27T08:23:44.670Z,99.40
2019-01-27T08:24:43.243Z,99.49
2019-01-27T08:26:04.243Z,99.77
2019-01-27T08:26:43.237Z,99.58
2019-01-27T08:28:08.246Z,99.49
2019-01-27T08:28:44.677Z,99.49
2019-01-27T08:29:43.736Z,99.99
2019-01-27T08:32:15.082Z,99.97
2019-01-27T08:33:44.022Z,99.99
2019-01-27T08:34:15.095Z,99.99
2019-01-27T08:38:23.009Z,98.73
2019-01-27T08:39:40.977Z,98.26
2019-01-27T08:40:18.543Z,98.64
2019-01-27T08:41:40.997Z,98.83
2019-01-27T08:42:18.222Z,98.92
2019-01-27T08:43:22.543Z,99.21
2019-01-27T08:44:40.046Z,99.02
2019-01-27T08:45:19.043Z,99.40
2019-01-27T08:46:42.543Z,99.11
2019-01-27T08:49:15.222Z,98.83
2019-01-27T08:49:50.905Z,99.21
2019-01-27T08:51:13.337Z,99.49
2019-01-27T08:53:22.624Z,99.30
2019-01-27T08:54:29.071Z,99.21
2019-01-27T08:55:22.632Z,98.83
2019-01-27T08:56:44.132Z,98.83
2019-01-27T08:59:15.481Z,97.97
2019-01-27T09:00:04.003Z,98.26
2019-01-27T09:00:55.978Z,98.54
2019-01-27T09:01:54.992Z,98.26
2019-01-27T09:03:15.992Z,98.45
2019-01-27T09:05:50.466Z,98.54
2019-01-27T09:06:26.487Z,98.79
2019-01-27T09:07:26.472Z,98.64
2019-01-27T09:09:57.518Z,97.88
2019-01-27T09:11:02.209Z,98.40
2019-01-27T09:11:58.202Z,98.40
2019-01-27T09:14:29.946Z,98.16
2019-01-27T09:15:51.875Z,98.59
2019-01-27T09:18:05.293Z,97.60
2019-01-27T09:20:36.770Z,97.83
2019-01-27T09:23:13.459Z,96.93
2019-01-27T09:24:14.457Z,97.88
2019-01-27T09:25:33.030Z,97.69
2019-01-27T09:26:12.024Z,97.78
2019-01-27T09:27:36.533Z,98.12
2019-01-27T09:28:12.023Z,97.92
2019-01-27T09:31:04.748Z,98.12
2019-01-27T09:31:43.752Z,98.31
2019-01-27T09:32:47.262Z,96.93
2019-01-27T09:35:15.978Z,97.83
2019-01-27T09:36:15.977Z,98.02
2019-01-27T09:38:51.201Z,97.92
2019-01-27T09:39:47.711Z,97.45
2019-01-27T09:43:55.835Z,97.17
2019-01-27T09:45:11.284Z,97.74
2019-01-27T09:46:05.100Z,98.50
2019-01-27T09:47:12.399Z,98.69
2019-01-27T09:48:12.391Z,98.02
2019-01-27T09:48:51.390Z,97.64
2019-01-27T09:50:16.395Z,97.55
2019-01-27T09:50:57.892Z,97.64
2019-01-27T09:53:23.245Z,97.74
2019-01-27T09:54:23.249Z,97.83
2019-01-27T09:55:27.249Z,97.07
2019-01-27T09:56:23.769Z,97.36
2019-01-27T09:57:44.748Z,98.02
2019-01-27T09:58:23.748Z,97.64
2019-01-27T09:59:25.694Z,97.92
2019-01-27T10:00:48.248Z,97.55
2019-01-27T10:01:24.248Z,97.92
2019-01-27T10:02:24.277Z,97.45
2019-01-27T10:04:57.414Z,95.94
2019-01-27T10:05:59.207Z,96.22
2019-01-27T10:07:09.986Z,97.17
2019-01-27T10:09:27.710Z,96.79
2019-01-27T10:10:27.723Z,96.79
2019-01-27T10:11:31.733Z,96.88
2019-01-27T10:13:59.447Z,96.26
2019-01-27T10:14:59.455Z,96.55
2019-01-27T10:16:20.953Z,95.32
2019-01-27T10:17:02.953Z,95.60
2019-01-27T10:19:31.444Z,94.84
2019-01-27T10:20:52.435Z,94.08
2019-01-27T10:21:31.434Z,93.99
2019-01-27T10:24:07.140Z,94.08
2019-01-27T10:25:07.128Z,93.99
2019-01-27T10:26:07.129Z,93.99
2019-01-27T10:28:44.293Z,94.89
2019-01-27T10:29:38.859Z,95.22
2019-01-27T10:32:31.602Z,95.70
2019-01-27T10:33:31.590Z,95.22
2019-01-27T10:34:14.589Z,95.51
2019-01-27T10:35:33.023Z,95.60
2019-01-27T10:36:32.089Z,94.37
2019-01-27T10:37:32.090Z,93.41
2019-01-27T10:38:32.095Z,94.46
2019-01-27T10:39:43.530Z,95.03
2019-01-27T10:40:13.052Z,95.03
2019-01-27T10:41:32.594Z,95.12
2019-01-27T10:42:11.588Z,95.12
2019-01-27T10:43:32.589Z,94.08
2019-01-27T10:47:18.391Z,93.70
2019-01-27T10:48:38.687Z,93.70
2019-01-27T10:49:18.379Z,93.60
2019-01-27T10:50:19.841Z,93.79
2019-01-27T10:54:25.486Z,94.27
2019-01-27T10:58:31.695Z,94.18
2019-01-27T11:00:31.721Z,93.23
2019-01-27T11:01:32.201Z,92.75
2019-01-27T11:02:36.882Z,92.85
2019-01-27T11:03:32.203Z,93.13
2019-01-27T11:04:32.204Z,93.99
2019-01-27T11:05:32.702Z,93.79
2019-01-27T11:08:30.018Z,93.99
2019-01-27T11:09:04.059Z,93.99
2019-01-27T11:10:05.490Z,93.79
2019-01-27T11:11:06.022Z,93.13
2019-01-27T11:12:27.557Z,93.32
2019-01-27T11:13:04.558Z,93.13
2019-01-27T11:14:29.568Z,92.85
2019-01-27T11:15:04.556Z,93.60
2019-01-27T11:20:45.381Z,94.37
2019-01-27T11:22:04.109Z,93.99
2019-01-27T11:23:04.088Z,94.08
2019-01-27T11:28:42.637Z,93.60
2019-01-27T11:29:46.045Z,92.94
2019-01-27T11:30:47.047Z,91.80
2019-01-27T11:31:22.110Z,92.70
2019-01-27T11:34:14.461Z,90.19
2019-01-27T11:34:53.483Z,90.00
2019-01-27T11:36:19.940Z,91.56
2019-01-27T11:39:59.549Z,90.75
2019-01-27T11:40:59.637Z,90.37
2019-01-27T11:41:56.617Z,90.47
2019-01-27T11:43:18.113Z,91.13
2019-01-27T11:43:57.117Z,90.85
2019-01-27T11:46:52.619Z,92.37
2019-01-27T11:47:28.614Z,90.75
2019-01-27T11:48:29.097Z,91.33
2019-01-27T11:49:29.106Z,92.66
2019-01-27T11:50:29.097Z,92.46
2019-01-27T11:51:29.096Z,92.94
2019-01-27T11:54:04.779Z,91.33
2019-01-27T11:55:08.711Z,90.19
2019-01-27T11:56:25.768Z,90.37
2019-01-27T11:59:01.504Z,89.94
2019-01-27T11:59:36.504Z,89.94
2019-01-27T12:00:36.533Z,90.23
2019-01-27T12:03:29.239Z,90.28
2019-01-27T12:05:44.917Z,89.94
2019-01-27T12:06:57.494Z,90.14
2019-01-27T12:07:43.482Z,90.04
2019-01-27T12:08:43.981Z,90.14
2019-01-27T12:09:47.484Z,90.33
2019-01-27T12:12:15.454Z,89.09
2019-01-27T12:13:15.483Z,87.28
2019-01-27T12:14:15.462Z,87.47
2019-01-27T12:15:19.498Z,88.33
2019-01-27T12:16:15.964Z,88.42
2019-01-27T12:17:15.297Z,88.42
2019-01-27T12:18:36.965Z,88.33
2019-01-27T12:19:15.432Z,88.80
2019-01-27T12:20:46.982Z,88.23
2019-01-27T12:21:38.895Z,87.95
2019-01-27T12:22:16.460Z,88.90
2019-01-27T12:23:37.466Z,89.00
2019-01-27T12:24:16.961Z,88.13
2019-01-27T12:27:12.839Z,89.00
2019-01-27T12:27:48.323Z,86.99
2019-01-27T12:28:48.324Z,85.86
2019-01-27T12:31:20.050Z,85.76
2019-01-27T12:34:15.940Z,86.14
2019-01-27T12:36:26.909Z,85.86
2019-01-27T12:37:51.912Z,85.86
2019-01-27T12:38:26.918Z,85.57
2019-01-27T12:41:19.653Z,85.76
2019-01-27T12:42:19.640Z,86.43
2019-01-27T12:43:02.140Z,88.61
2019-01-27T12:44:00.077Z,87.19
2019-01-27T12:45:01.603Z,87.09
2019-01-27T12:45:59.139Z,86.80
2019-01-27T12:46:59.147Z,87.90
2019-01-27T12:48:06.577Z,85.47
2019-01-27T12:48:59.641Z,85.00
2019-01-27T12:49:59.639Z,85.00
2019-01-27T12:51:20.639Z,85.19
2019-01-27T12:52:00.145Z,84.81
2019-01-27T12:53:08.575Z,86.71
2019-01-27T12:54:03.647Z,85.38
2019-01-27T12:55:01.598Z,85.00
2019-01-27T12:56:21.641Z,85.95
2019-01-27T12:57:02.112Z,85.00
2019-01-27T12:58:00.714Z,84.95
2019-01-27T12:59:26.576Z,85.42
2019-01-27T13:01:35.055Z,84.56
2019-01-27T13:02:33.561Z,84.24
2019-01-27T13:07:01.617Z,82.62
2019-01-27T13:08:00.186Z,82.53
2019-01-27T13:08:39.169Z,83.29
2019-01-27T13:09:39.661Z,85.47
2019-01-27T13:10:43.161Z,85.66
2019-01-27T13:11:39.664Z,84.62
2019-01-27T13:12:39.668Z,84.62
2019-01-27T13:15:32.406Z,85.00
2019-01-27T13:16:14.931Z,84.81
2019-01-27T13:19:04.122Z,85.86
2019-01-27T13:20:06.724Z,85.76
2019-01-27T13:20:44.069Z,86.43
2019-01-27T13:21:46.645Z,86.90
2019-01-27T13:23:06.096Z,86.90
2019-01-27T13:25:14.947Z,86.99
2019-01-27T13:26:14.951Z,86.05
2019-01-27T13:27:19.022Z,86.71
2019-01-27T13:28:36.473Z,87.09
2019-01-27T13:29:15.457Z,86.71
2019-01-27T13:30:15.452Z,85.00
2019-01-27T13:33:11.675Z,86.33
2019-01-27T13:33:47.195Z,86.33
2019-01-27T13:38:14.738Z,86.67
2019-01-27T13:38:51.672Z,86.86
2019-01-27T13:39:51.664Z,87.34
2019-01-27T13:45:48.633Z,91.89
2019-01-27T13:46:49.358Z,92.46
2019-01-27T13:47:28.938Z,92.46
2019-01-27T13:50:04.083Z,92.08
2019-01-27T13:51:21.592Z,92.08
2019-01-27T13:52:00.597Z,92.85
2019-01-27T13:53:22.089Z,91.42
2019-01-27T13:55:35.451Z,92.08
2019-01-27T13:56:53.458Z,91.89
2019-01-27T13:57:32.458Z,92.66
2019-01-27T13:58:53.972Z,92.85
2019-01-27T14:01:29.311Z,93.70
2019-01-27T14:02:04.363Z,94.08
2019-01-27T14:03:25.323Z,92.56
2019-01-27T14:04:04.838Z,92.27
2019-01-27T14:07:00.712Z,93.04
2019-01-27T14:07:36.695Z,93.51
2019-01-27T14:08:38.129Z,93.70
2019-01-27T14:09:41.629Z,93.70
2019-01-27T14:11:00.199Z,93.70
2019-01-27T14:11:41.195Z,93.23
2019-01-27T14:14:22.690Z,92.46
2019-01-27T14:15:12.790Z,92.56
2019-01-27T14:16:10.112Z,92.85
2019-01-27T14:17:47.676Z,93.79
2019-01-27T14:21:32.860Z,93.04
2019-01-27T14:22:16.780Z,93.32
2019-01-27T14:23:11.257Z,93.51
2019-01-27T14:24:32.852Z,92.85
2019-01-27T14:25:33.346Z,92.75
2019-01-27T14:26:12.346Z,92.75
2019-01-27T14:33:47.245Z,91.71
2019-01-27T14:34:22.231Z,91.23
2019-01-27T14:35:22.223Z,91.61
2019-01-27T14:36:43.726Z,91.56
2019-01-27T14:37:43.726Z,91.71
2019-01-27T14:38:22.723Z,91.71
2019-01-27T14:39:27.222Z,92.37
2019-01-27T14:40:23.241Z,92.46
2019-01-27T14:41:23.223Z,91.85
2019-01-27T14:42:24.657Z,90.99
2019-01-27T14:43:23.223Z,91.13
2019-01-27T14:44:54.223Z,91.09
2019-01-27T14:45:50.721Z,90.42
2019-01-27T14:46:44.741Z,91.28
2019-01-27T14:47:27.158Z,91.47
2019-01-27T14:51:31.158Z,91.19
2019-01-27T14:52:31.154Z,92.80
2019-01-27T14:53:31.174Z,92.04
2019-01-27T14:56:06.880Z,92.61
2019-01-27T14:57:02.883Z,93.56
2019-01-27T14:58:02.884Z,93.56
2019-01-27T14:59:03.386Z,92.61
2019-01-27T15:01:59.251Z,92.51
2019-01-27T15:02:36.213Z,93.18
2019-01-27T15:03:56.679Z,93.37
2019-01-27T15:04:59.175Z,92.99
2019-01-27T15:07:32.061Z,92.80
2019-01-27T15:08:06.622Z,92.32
2019-01-27T15:09:06.597Z,92.61
2019-01-27T15:10:30.032Z,92.99
2019-01-27T15:11:07.098Z,93.94
2019-01-27T15:15:14.507Z,93.56
2019-01-27T15:16:14.488Z,93.27
2019-01-27T15:19:12.239Z,94.03
2019-01-27T15:21:22.714Z,93.75
2019-01-27T15:24:17.039Z,93.80
2019-01-27T15:24:56.043Z,93.99
2019-01-27T15:26:17.046Z,93.80
2019-01-27T15:30:03.147Z,94.18
2019-01-27T15:31:24.135Z,94.27
2019-01-27T15:32:03.132Z,94.46
2019-01-27T15:34:38.855Z,95.12
2019-01-27T15:35:35.835Z,94.84
2019-01-27T15:36:55.880Z,95.41
2019-01-27T15:39:06.588Z,95.98
2019-01-27T15:46:20.562Z,95.98
2019-01-27T15:48:48.501Z,96.17
2019-01-27T15:54:26.536Z,95.94
2019-01-27T15:55:26.522Z,96.22
2019-01-27T15:58:01.333Z,96.03
2019-01-27T15:59:01.326Z,96.55
2019-01-27T16:00:01.325Z,95.79
2019-01-27T16:01:23.788Z,96.17
2019-01-27T16:02:05.324Z,96.17
2019-01-27T16:03:22.824Z,95.79
2019-01-27T16:04:01.837Z,96.64
2019-01-27T16:06:33.553Z,97.50
2019-01-27T16:07:37.101Z,97.36
2019-01-27T16:08:33.560Z,97.12
2019-01-27T16:09:33.614Z,96.83
2019-01-27T16:12:05.283Z,97.78
2019-01-27T16:13:29.790Z,97.50
2019-01-27T16:14:05.308Z,97.50
2019-01-27T16:15:04.878Z,96.60
2019-01-27T16:16:05.795Z,96.79
2019-01-27T16:17:05.798Z,96.88
2019-01-27T16:18:09.789Z,96.98
2019-01-27T16:19:27.289Z,96.79
2019-01-27T16:20:06.314Z,96.98
2019-01-27T16:21:06.288Z,97.07
2019-01-27T16:22:06.290Z,96.98
2019-01-27T16:23:06.789Z,96.69
2019-01-27T16:24:09.788Z,96.64
2019-01-27T16:25:27.788Z,96.83
2019-01-27T16:26:06.823Z,96.60
2019-01-27T16:28:38.535Z,96.79
2019-01-27T16:29:42.515Z,96.79
2019-01-27T16:30:38.525Z,96.45
2019-01-27T16:33:31.246Z,97.74
2019-01-27T16:34:10.253Z,97.64
2019-01-27T16:35:15.191Z,97.45
2019-01-27T16:37:45.918Z,97.12
2019-01-27T16:39:02.979Z,96.69
2019-01-27T16:39:41.981Z,96.88
2019-01-27T16:41:06.487Z,96.79
2019-01-27T16:43:34.200Z,96.79
2019-01-27T16:44:13.849Z,96.88
2019-01-27T16:45:35.339Z,96.98
2019-01-27T16:46:39.337Z,96.60
2019-01-27T16:47:18.825Z,96.50
2019-01-27T16:48:15.779Z,96.50
2019-01-27T16:49:14.840Z,96.50
2019-01-27T16:50:38.273Z,96.41
2019-01-27T16:51:18.338Z,96.60
2019-01-27T16:52:41.839Z,96.41
2019-01-27T16:53:14.855Z,96.60
2019-01-27T16:57:21.539Z,95.79
2019-01-27T16:58:18.023Z,96.36
2019-01-27T16:59:39.055Z,97.12
2019-01-27T17:01:49.753Z,96.93
2019-01-27T17:02:54.233Z,97.60
2019-01-27T17:03:49.778Z,97.50
2019-01-27T17:04:50.261Z,97.69
2019-01-27T17:05:50.261Z,97.41
2019-01-27T17:06:50.263Z,98.26
2019-01-27T17:07:54.763Z,97.97
2019-01-27T17:11:54.858Z,97.50
2019-01-27T17:14:28.729Z,97.50
2019-01-27T17:15:28.067Z,97.88
2019-01-27T17:16:50.193Z,98.64
2019-01-27T17:17:30.740Z,98.35
2019-01-27T17:18:53.757Z,98.73
2019-01-27T17:19:29.235Z,97.88
2019-01-27T17:20:52.681Z,97.50
2019-01-27T17:21:29.235Z,97.64
2019-01-27T17:22:29.235Z,97.78
2019-01-27T17:23:29.735Z,97.78
2019-01-27T17:24:34.694Z,97.88
2019-01-27T17:25:29.762Z,98.07
2019-01-27T17:26:29.735Z,97.88
2019-01-27T17:27:50.747Z,97.78
2019-01-27T17:28:51.235Z,97.78
2019-01-27T17:32:37.547Z,97.64
2019-01-27T17:33:37.523Z,97.50
2019-01-27T17:34:41.525Z,98.07
2019-01-27T17:35:37.522Z,97.88
2019-01-27T17:36:38.022Z,98.64
2019-01-27T17:39:09.809Z,98.45
2019-01-27T17:40:14.350Z,98.07
2019-01-27T17:41:09.380Z,97.88
2019-01-27T17:42:30.876Z,97.97
2019-01-27T17:43:30.875Z,97.88
2019-01-27T17:47:17.070Z,99.02
2019-01-27T17:48:17.054Z,99.11
2019-01-27T17:49:17.050Z,99.02
2019-01-27T17:52:13.773Z,98.26
2019-01-27T17:52:48.779Z,98.35
2019-01-27T17:53:48.798Z,98.45
2019-01-27T17:56:21.941Z,98.83
2019-01-27T18:00:48.181Z,99.21
2019-01-27T18:01:26.498Z,99.49
2019-01-27T18:02:32.097Z,99.11
2019-01-27T18:03:41.158Z,99.11
2019-01-27T18:04:48.658Z,99.21
2019-01-27T18:05:27.656Z,99.49
2019-01-27T18:06:27.657Z,99.49
2019-01-27T18:07:33.679Z,99.11
2019-01-27T18:08:29.613Z,99.30
2019-01-27T18:10:59.464Z,99.02
2019-01-27T18:11:59.467Z,99.21
2019-01-27T18:13:08.910Z,99.21
2019-01-27T18:17:25.063Z,99.21
2019-01-27T18:18:06.628Z,98.73
2019-01-27T18:19:02.624Z,99.07
2019-01-27T18:23:09.765Z,98.26
2019-01-27T18:24:05.825Z,98.26
2019-01-27T18:25:05.771Z,98.21
2019-01-27T18:26:27.288Z,98.50
2019-01-27T18:29:01.123Z,98.12
2019-01-27T18:29:37.643Z,98.26
2019-01-27T18:30:37.668Z,98.45
2019-01-27T18:31:38.132Z,99.07
2019-01-27T18:35:44.282Z,98.59
2019-01-27T18:38:36.809Z,98.40
2019-01-27T18:39:40.265Z,97.74
2019-01-27T18:40:15.760Z,98.12
2019-01-27T18:42:47.495Z,98.40
2019-01-27T18:43:46.821Z,98.59
2019-01-27T18:44:50.556Z,98.02
2019-01-27T18:45:47.490Z,98.02
2019-01-27T18:48:19.232Z,98.02
2019-01-27T18:52:31.251Z,98.50
2019-01-27T18:53:26.161Z,98.50
2019-01-27T18:54:26.160Z,98.54
2019-01-27T18:55:47.661Z,97.83
2019-01-27T18:56:30.161Z,98.26
2019-01-27T18:57:26.661Z,97.92
2019-01-27T18:58:26.660Z,98.31
2019-01-27T18:59:27.183Z,98.50
2019-01-27T19:03:33.369Z,99.02
2019-01-27T19:06:04.861Z,99.02
2019-01-27T19:07:08.348Z,99.49
2019-01-27T19:12:43.763Z,99.40
2019-01-27T19:13:39.747Z,99.49
2019-01-27T19:14:39.746Z,99.87
2019-01-27T19:19:07.919Z,99.58